This is the latest recevied weather packets stored in our database for station/object KB4KY. If no packets are shown the sender has not sent any weather packets the latest 10 day(s).
| Time | Temp. | Humidity | Pressure | Rain* | Wind** | Luminosity | Snow |
|---|---|---|---|---|---|---|---|
| 1777910157 | 22.22° C | 56% | 1010 hPa | 0 mm | - | - | - |
| 1777909858 | 21.67° C | 59% | 1010.1 hPa | 0 mm | - | - | - |
| 1777909699 | 21.67° C | 61% | 1010.2 hPa | 0 mm | - | - | - |
| 1777909557 | 21.67° C | 61% | 1010.3 hPa | 0 mm | - | - | - |
| 1777909258 | 21.67° C | 61% | 1010.2 hPa | 0 mm | - | - | - |
| 1777908957 | 21.11° C | 58% | 1010.3 hPa | 0 mm | - | - | - |
| 1777908745 | 19.44° C | 66% | 1010.7 hPa | 0 mm | - | - | - |
| 1777908656 | 20.56° C | 62% | 1010.4 hPa | 0 mm | - | - | - |
| 1777908357 | 20° C | 63% | 1010.6 hPa | 0 mm | - | - | - |
| 1777908057 | 19.44° C | 65% | 1010.6 hPa | 0 mm | - | - | - |
| 1777907755 | 19.44° C | 66% | 1010.7 hPa | 0 mm | - | - | - |
| 1777907455 | 19.44° C | 61% | 1010.8 hPa | 0 mm | - | - | - |
| 1777907154 | 19.44° C | 61% | 1010.7 hPa | 0 mm | - | - | - |
| 1777906854 | 18.89° C | 65% | 1010.8 hPa | 0 mm | - | - | - |
| 1777906554 | 18.33° C | 67% | 1010.9 hPa | 0 mm | - | - | - |
| 1777906253 | 18.33° C | 65% | 1011 hPa | 0 mm | - | - | - |
| 1777905953 | 18.89° C | 65% | 1011 hPa | 0 mm | - | - | - |
| 1777905653 | 18.33° C | 67% | 1011 hPa | 0 mm | - | - | - |
| 1777905353 | 18.33° C | 64% | 1011 hPa | 0 mm | - | - | - |
| 1777905052 | 18.33° C | 66% | 1011.2 hPa | 0 mm | - | - | - |
| 1777904752 | 18.33° C | 65% | 1011.2 hPa | 0 mm | - | - | - |
| 1777904452 | 17.78° C | 67% | 1011.3 hPa | 0 mm | - | - | - |
| 1777904333 | 17.22° C | 66% | 1011.4 hPa | 0 mm | - | - | - |
| 1777904285 | 17.22° C | 67% | 1011.5 hPa | 0 mm | - | - | - |
| 1777904151 | 17.22° C | 66% | 1011.4 hPa | 0 mm | - | - | - |
* Rain latest hour (hover to see other rain measurements)
** Current wind speed in m/s (hover to see current wind gust speed)